Loddon, United Kingdom
Current Conditions -  °F | °C
As of 7:50 AM on Tuesday 21 Oct 2014 (Local Time) from EGSD Reporting Station
Rain Showers Rain Showers  
Wind Chill: 55°   Ceiling: Unl
Heat Index: 55°   Visibility: 6mi
Dew Point: 54°   Wind: 23mph
Humidity: 94%   Direction: 210°SSW
Pressure: 29.44"   Gusts: NA
Location:  52.53°N, 1.48°E
Report Text: EGSD 210650Z 21020KT 9999 VCSH SCT020 13/12 Q0997
Loading
Personal Weather Stations






























Interactive Weather Map
Tropical Storm Tracking
New forecast layout! Learn more

10-Day Weather Forecast

Advertisements
Track Severe Weather on mobile